createdAt,value
2023-03-14T00:01:18.367Z,85.30
2023-03-14T00:03:45.458Z,86.20
2023-03-14T00:06:13.248Z,88.20
2023-03-14T00:08:41.224Z,89.20
2023-03-14T00:11:10.102Z,93.00
2023-03-14T00:13:40.497Z,95.90
2023-03-14T00:16:13.267Z,99.20
2023-03-14T00:18:41.414Z,99.90
2023-03-14T00:21:09.181Z,99.90
2023-03-14T00:23:39.931Z,99.90
2023-03-14T00:26:09.669Z,99.90
2023-03-14T00:28:37.950Z,99.90
2023-03-14T00:31:09.199Z,99.90
2023-03-14T00:33:39.309Z,99.90
2023-03-14T00:36:10.210Z,99.90
2023-03-14T00:38:38.016Z,99.90
2023-03-14T00:41:10.801Z,99.90
2023-03-14T00:43:38.144Z,99.90
2023-03-14T00:46:06.836Z,99.90
2023-03-14T00:48:34.357Z,99.90
2023-03-14T00:51:02.416Z,99.90
2023-03-14T00:53:29.872Z,99.90
2023-03-14T00:56:04.200Z,99.90
2023-03-14T00:58:31.566Z,99.90
2023-03-14T01:01:02.157Z,99.90
2023-03-14T01:03:29.310Z,99.90
2023-03-14T01:06:08.059Z,99.90
2023-03-14T01:08:39.047Z,99.90
2023-03-14T01:11:20.615Z,99.90
2023-03-14T01:13:48.089Z,99.90
2023-03-14T01:16:15.581Z,99.90
2023-03-14T01:18:44.837Z,99.90
2023-03-14T01:21:13.621Z,99.90
2023-03-14T01:23:44.578Z,99.90
2023-03-14T01:26:23.940Z,99.90
2023-03-14T01:28:58.809Z,99.90
2023-03-14T01:31:44.425Z,99.90
2023-03-14T01:34:12.530Z,99.90
2023-03-14T01:36:40.258Z,99.90
2023-03-14T01:39:11.422Z,99.90
2023-03-14T01:41:42.133Z,99.90
2023-03-14T01:44:13.210Z,99.90
2023-03-14T01:46:48.831Z,99.90
2023-03-14T01:49:32.342Z,99.90
2023-03-14T01:52:35.054Z,99.90
2023-03-14T01:55:20.906Z,99.90
2023-03-14T02:00:49.473Z,98.00
2023-03-14T02:06:17.382Z,95.90
2023-03-14T02:08:52.654Z,94.70
2023-03-14T02:11:41.578Z,98.90
2023-03-14T02:14:39.321Z,99.00
2023-03-14T02:17:22.051Z,99.90
2023-03-14T02:20:36.916Z,98.40
2023-03-14T02:23:12.721Z,96.50
2023-03-14T02:26:16.304Z,96.40
2023-03-14T02:28:44.766Z,93.60
2023-03-14T02:31:12.361Z,93.10
2023-03-14T02:33:50.846Z,90.90
2023-03-14T02:36:21.958Z,90.70
2023-03-14T02:39:21.391Z,90.40
2023-03-14T02:41:51.825Z,88.90
2023-03-14T02:44:38.229Z,90.80
2023-03-14T02:47:24.984Z,93.50
2023-03-14T02:50:16.960Z,88.00
2023-03-14T02:52:47.135Z,72.40
2023-03-14T02:55:24.860Z,68.20
2023-03-14T02:57:59.179Z,75.30
2023-03-14T03:00:30.092Z,69.70
2023-03-14T03:03:02.313Z,52.30
2023-03-14T03:05:29.634Z,50.70
2023-03-14T03:08:03.492Z,46.40
2023-03-14T03:10:36.097Z,40.20
2023-03-14T03:13:20.856Z,42.80
2023-03-14T03:15:57.986Z,39.70
2023-03-14T03:18:32.122Z,34.20
2023-03-14T03:21:12.978Z,35.40
2023-03-14T03:23:40.837Z,37.20
2023-03-14T03:26:10.414Z,36.90
2023-03-14T03:28:51.532Z,42.00
2023-03-14T03:31:19.874Z,43.90
2023-03-14T03:34:58.075Z,45.50
2023-03-14T03:37:31.650Z,48.90
2023-03-14T03:39:59.556Z,53.40
2023-03-14T03:42:31.424Z,55.70
2023-03-14T03:45:01.889Z,56.20
2023-03-14T03:47:41.451Z,56.60
2023-03-14T03:50:15.554Z,56.90
2023-03-14T03:52:43.063Z,61.00
2023-03-14T03:55:10.422Z,57.50
2023-03-14T03:57:37.778Z,56.60
2023-03-14T04:00:18.345Z,54.00
2023-03-14T04:02:45.536Z,56.40
2023-03-14T04:05:17.508Z,56.50
2023-03-14T04:07:59.841Z,57.10
2023-03-14T04:10:29.113Z,44.90
2023-03-14T04:13:21.940Z,42.20
2023-03-14T04:15:55.027Z,32.10
2023-03-14T04:18:26.053Z,36.10
2023-03-14T04:20:57.448Z,37.30
2023-03-14T04:23:32.598Z,33.30
2023-03-14T04:25:59.904Z,30.00
2023-03-14T04:28:27.576Z,32.90
2023-03-14T04:30:55.084Z,29.30
2023-03-14T04:33:24.739Z,32.20
2023-03-14T04:35:57.386Z,33.60
2023-03-14T04:38:28.873Z,34.50
2023-03-14T04:40:56.916Z,34.10
2023-03-14T04:43:29.832Z,32.90
2023-03-14T04:46:03.734Z,35.40
2023-03-14T04:48:31.197Z,35.60
2023-03-14T04:50:59.775Z,36.30
2023-03-14T04:53:32.843Z,37.40
2023-03-14T04:56:04.449Z,37.30
2023-03-14T04:58:55.835Z,36.80
2023-03-14T05:01:23.417Z,35.40
2023-03-14T05:04:04.796Z,36.60
2023-03-14T05:07:01.178Z,38.20
2023-03-14T05:10:07.200Z,38.80
2023-03-14T05:12:53.047Z,38.10
2023-03-14T05:15:30.947Z,34.60
2023-03-14T05:18:18.805Z,35.20
2023-03-14T05:21:11.992Z,34.30
2023-03-14T05:24:14.429Z,35.60
2023-03-14T05:27:03.974Z,34.50
2023-03-14T05:29:34.230Z,33.40
2023-03-14T05:32:20.666Z,36.00
2023-03-14T05:35:01.112Z,31.70
2023-03-14T05:37:38.205Z,32.20
2023-03-14T05:40:28.756Z,30.60
2023-03-14T05:43:04.274Z,27.90
2023-03-14T05:45:52.401Z,28.00
2023-03-14T05:48:41.111Z,27.80
2023-03-14T05:51:18.723Z,26.90
2023-03-14T05:54:04.578Z,26.40
2023-03-14T05:56:45.616Z,28.00
2023-03-14T05:59:21.762Z,27.60
2023-03-14T06:02:04.830Z,26.80
2023-03-14T06:04:42.798Z,27.30
2023-03-14T06:07:10.686Z,26.70
2023-03-14T06:09:38.346Z,28.20
2023-03-14T06:12:07.900Z,27.50
2023-03-14T06:14:41.327Z,27.50
2023-03-14T06:17:09.633Z,26.30
2023-03-14T06:19:47.165Z,26.00
2023-03-14T06:22:16.436Z,27.60
2023-03-14T06:24:44.665Z,26.20
2023-03-14T06:27:12.984Z,27.00
2023-03-14T06:29:40.076Z,27.00
2023-03-14T06:32:08.347Z,28.60
2023-03-14T06:34:45.903Z,29.30
2023-03-14T06:37:13.370Z,29.20
2023-03-14T06:39:41.702Z,28.60
2023-03-14T06:42:18.202Z,29.50
2023-03-14T06:44:46.619Z,27.10
2023-03-14T06:47:14.055Z,27.10
2023-03-14T06:49:44.162Z,26.50
2023-03-14T06:52:29.465Z,27.30
2023-03-14T06:54:57.589Z,28.10
2023-03-14T06:57:25.018Z,28.30
2023-03-14T06:59:52.451Z,26.90
2023-03-14T07:02:35.995Z,28.50
2023-03-14T07:05:14.091Z,26.70
2023-03-14T07:07:43.179Z,27.40
2023-03-14T07:10:11.299Z,26.20
2023-03-14T07:12:38.606Z,27.10
2023-03-14T07:15:17.588Z,27.10
2023-03-14T07:17:45.369Z,27.50
2023-03-14T07:20:12.814Z,27.90
2023-03-14T07:22:43.983Z,25.30
2023-03-14T07:25:13.256Z,27.20
2023-03-14T07:27:41.820Z,27.20
2023-03-14T07:30:10.061Z,27.60
2023-03-14T07:32:39.858Z,27.20
2023-03-14T07:35:20.182Z,27.10
2023-03-14T07:37:48.518Z,26.30
2023-03-14T07:40:18.581Z,27.40
2023-03-14T07:42:47.778Z,28.10
2023-03-14T07:45:18.358Z,28.30
2023-03-14T07:47:45.801Z,28.40
2023-03-14T07:50:13.193Z,29.70
2023-03-14T07:52:43.813Z,31.60
2023-03-14T07:55:16.899Z,32.30
2023-03-14T07:57:44.192Z,37.40
2023-03-14T08:00:16.042Z,41.00
2023-03-14T08:02:45.283Z,44.60
2023-03-14T08:05:13.824Z,49.20
2023-03-14T08:07:59.912Z,54.90
2023-03-14T08:10:27.410Z,59.40
2023-03-14T08:12:59.330Z,60.80
2023-03-14T08:15:27.325Z,63.90
2023-03-14T08:17:55.793Z,65.30
2023-03-14T08:20:25.620Z,69.30
2023-03-14T08:22:53.104Z,71.00
2023-03-14T08:25:21.395Z,71.00
2023-03-14T08:27:49.044Z,72.60
2023-03-14T08:30:17.563Z,73.20
2023-03-14T08:32:46.875Z,75.00
2023-03-14T08:35:14.850Z,76.10
2023-03-14T08:37:42.737Z,77.40
2023-03-14T08:40:13.032Z,77.50
2023-03-14T08:42:41.180Z,76.80
2023-03-14T08:45:09.434Z,76.90
2023-03-14T08:47:37.089Z,74.00
2023-03-14T08:50:06.021Z,76.10
2023-03-14T08:52:35.974Z,81.50
2023-03-14T08:55:19.178Z,85.70
2023-03-14T08:57:47.364Z,86.60
2023-03-14T09:00:16.578Z,88.20
2023-03-14T09:02:51.622Z,90.80
2023-03-14T09:05:19.124Z,88.90
2023-03-14T09:07:46.433Z,91.50
2023-03-14T09:10:14.296Z,91.80
2023-03-14T09:12:41.603Z,91.00
2023-03-14T09:15:12.797Z,89.70
2023-03-14T09:17:46.984Z,86.50
2023-03-14T09:20:18.344Z,83.80
2023-03-14T09:22:45.932Z,79.20
2023-03-14T09:25:13.392Z,81.20
2023-03-14T09:27:41.626Z,78.00
2023-03-14T09:30:13.081Z,81.30
2023-03-14T09:32:44.708Z,84.80
2023-03-14T09:35:38.430Z,83.70
2023-03-14T09:38:07.579Z,78.10
2023-03-14T09:40:49.453Z,82.00
2023-03-14T09:43:22.798Z,85.10
2023-03-14T09:45:57.557Z,83.40
2023-03-14T09:48:31.667Z,83.10
2023-03-14T09:51:00.293Z,84.70
2023-03-14T09:54:43.596Z,82.30
2023-03-14T09:57:04.309Z,82.40
2023-03-14T09:59:44.243Z,85.00
2023-03-14T10:10:33.053Z,83.90
2023-03-14T10:13:46.317Z,86.10
2023-03-14T10:16:17.614Z,87.70
2023-03-14T10:18:54.972Z,88.70
2023-03-14T10:21:35.789Z,85.90
2023-03-14T10:24:24.421Z,85.10
2023-03-14T10:31:03.688Z,79.10
2023-03-14T10:33:38.344Z,76.80
2023-03-14T10:39:50.837Z,63.80
2023-03-14T10:42:50.093Z,64.70
2023-03-14T10:45:36.189Z,55.80
2023-03-14T10:48:15.838Z,59.40
2023-03-14T10:51:15.536Z,55.40
2023-03-14T10:54:22.152Z,50.50
2023-03-14T10:57:08.750Z,50.50
2023-03-14T10:59:58.340Z,49.50
2023-03-14T11:02:43.997Z,40.20
2023-03-14T11:05:15.150Z,39.60
2023-03-14T11:07:44.485Z,39.60
2023-03-14T11:10:37.152Z,36.70
2023-03-14T11:13:08.198Z,34.90
2023-03-14T11:15:48.611Z,29.50
2023-03-14T11:18:39.409Z,34.10
2023-03-14T11:21:22.069Z,37.80
2023-03-14T11:23:57.335Z,35.10
2023-03-14T11:26:50.385Z,23.00
2023-03-14T11:29:24.148Z,27.40
2023-03-14T11:31:52.680Z,28.90
2023-03-14T11:34:39.454Z,25.20
2023-03-14T11:37:12.235Z,21.90
2023-03-14T11:39:41.317Z,21.60
2023-03-14T11:42:16.213Z,25.30
2023-03-14T11:44:50.344Z,26.50
2023-03-14T11:47:39.505Z,27.80
2023-03-14T11:50:26.214Z,25.30
2023-03-14T11:53:16.398Z,22.80
2023-03-14T11:55:44.203Z,23.80
2023-03-14T11:58:20.073Z,25.70
2023-03-14T12:00:49.041Z,23.70
2023-03-14T12:03:37.635Z,27.00
2023-03-14T12:06:53.055Z,20.70
2023-03-14T12:09:21.514Z,20.50
2023-03-14T12:11:59.601Z,14.40
2023-03-14T12:14:38.126Z,19.90
2023-03-14T12:17:27.373Z,16.80
2023-03-14T12:20:20.475Z,15.20
2023-03-14T12:22:51.394Z,16.30
2023-03-14T12:25:22.058Z,14.00
2023-03-14T12:27:56.700Z,10.50
2023-03-14T12:30:28.699Z,8.40
2023-03-14T12:33:33.813Z,6.50
2023-03-14T12:36:03.011Z,6.10
2023-03-14T12:38:57.100Z,6.50
2023-03-14T12:41:36.520Z,3.70
2023-03-14T12:44:33.482Z,2.90
2023-03-14T12:47:01.578Z,5.60
2023-03-14T12:49:33.937Z,6.90
2023-03-14T12:52:02.382Z,8.30
2023-03-14T12:54:57.488Z,7.50
2023-03-14T12:57:33.876Z,4.70
2023-03-14T13:00:02.318Z,7.40
2023-03-14T13:02:46.057Z,6.10
2023-03-14T13:05:21.171Z,5.50
2023-03-14T13:07:49.192Z,3.10
2023-03-14T13:10:21.594Z,1.00
2023-03-14T13:13:10.121Z,1.00
2023-03-14T13:15:42.215Z,1.00
2023-03-14T13:18:14.138Z,1.00
2023-03-14T13:20:56.678Z,1.00
2023-03-14T13:23:26.013Z,1.00
2023-03-14T13:25:54.192Z,1.00
2023-03-14T13:28:21.806Z,1.00
2023-03-14T13:30:51.034Z,1.00
2023-03-14T13:33:22.556Z,1.00
2023-03-14T13:35:59.150Z,1.00
2023-03-14T13:38:28.503Z,1.00
2023-03-14T13:41:00.615Z,1.00
2023-03-14T13:43:40.901Z,1.00
2023-03-14T13:46:17.874Z,1.00
2023-03-14T13:48:53.705Z,1.00
2023-03-14T13:51:22.154Z,1.00
2023-03-14T13:53:51.009Z,1.00
2023-03-14T13:56:22.812Z,1.00
2023-03-14T13:58:50.444Z,1.00
2023-03-14T14:01:39.659Z,1.00
2023-03-14T14:04:16.337Z,1.00
2023-03-14T14:06:49.460Z,1.00
2023-03-14T14:09:21.504Z,1.00
2023-03-14T14:12:17.657Z,1.00
2023-03-14T14:14:50.218Z,1.00
2023-03-14T14:17:29.688Z,1.00
2023-03-14T14:19:57.962Z,1.00
2023-03-14T14:22:29.456Z,1.00
2023-03-14T14:24:56.734Z,1.00
2023-03-14T14:27:36.733Z,1.00
2023-03-14T14:30:19.535Z,1.00
2023-03-14T14:32:48.477Z,1.00
2023-03-14T14:35:36.711Z,1.00
2023-03-14T14:38:04.626Z,1.00
2023-03-14T14:40:46.809Z,1.00
2023-03-14T14:43:18.800Z,1.00
2023-03-14T14:45:46.486Z,1.00
2023-03-14T14:48:15.053Z,1.00
2023-03-14T14:50:48.715Z,1.00
2023-03-14T14:53:23.795Z,1.00
2023-03-14T14:55:56.383Z,1.00
2023-03-14T14:58:34.914Z,1.00
2023-03-14T15:01:24.837Z,1.00
2023-03-14T15:03:53.957Z,1.00
2023-03-14T15:06:23.190Z,1.00
2023-03-14T15:08:51.645Z,1.00
2023-03-14T15:11:31.820Z,1.00
2023-03-14T15:13:59.931Z,1.00
2023-03-14T15:16:32.006Z,1.00
2023-03-14T15:19:23.055Z,1.00
2023-03-14T15:21:59.215Z,1.00
2023-03-14T15:24:30.500Z,1.00
2023-03-14T15:27:08.323Z,1.00
2023-03-14T15:29:42.091Z,1.00
2023-03-14T15:32:15.056Z,1.00
2023-03-14T15:34:43.382Z,1.00
2023-03-14T15:37:13.534Z,1.00
2023-03-14T15:39:41.925Z,1.00
2023-03-14T15:42:09.747Z,1.00
2023-03-14T15:44:37.939Z,1.00
2023-03-14T15:47:05.834Z,1.00
2023-03-14T15:49:33.861Z,1.00
2023-03-14T15:52:01.128Z,1.00
2023-03-14T15:54:29.526Z,1.00
2023-03-14T15:56:57.950Z,1.00
2023-03-14T15:59:25.570Z,1.00
2023-03-14T16:01:53.819Z,1.00
2023-03-14T16:04:21.407Z,1.00
2023-03-14T16:06:48.724Z,1.00
2023-03-14T16:09:16.577Z,1.00
2023-03-14T16:11:47.734Z,1.00
2023-03-14T16:14:15.630Z,1.00
2023-03-14T16:16:43.465Z,1.00
2023-03-14T16:19:19.943Z,1.00
2023-03-14T16:21:48.578Z,1.00
2023-03-14T16:24:16.791Z,1.00
2023-03-14T16:26:45.761Z,1.00
2023-03-14T16:29:13.571Z,1.00
2023-03-14T16:31:43.376Z,1.00
2023-03-14T16:34:10.932Z,1.00
2023-03-14T16:36:38.485Z,1.00
2023-03-14T16:39:05.995Z,1.00
2023-03-14T16:41:33.336Z,1.00
2023-03-14T16:44:01.971Z,1.00
2023-03-14T16:46:30.817Z,1.00
2023-03-14T16:48:58.920Z,1.00
2023-03-14T16:51:29.716Z,1.00
2023-03-14T16:53:57.566Z,1.00
2023-03-14T16:56:25.063Z,1.00
2023-03-14T16:58:52.744Z,1.00
2023-03-14T17:01:21.686Z,1.00
2023-03-14T17:03:53.402Z,1.00
2023-03-14T17:06:28.246Z,1.00
2023-03-14T17:08:56.759Z,1.00
2023-03-14T17:11:25.533Z,1.00
2023-03-14T17:13:52.847Z,1.00
2023-03-14T17:16:22.188Z,1.00
2023-03-14T17:18:50.812Z,1.00
2023-03-14T17:21:18.278Z,1.00
2023-03-14T17:23:45.593Z,1.00
2023-03-14T17:26:13.658Z,1.00
2023-03-14T17:28:41.046Z,1.00
2023-03-14T17:31:10.499Z,1.00
2023-03-14T17:33:38.014Z,1.00
2023-03-14T17:36:07.895Z,1.00
2023-03-14T17:38:36.687Z,1.00
2023-03-14T17:41:04.781Z,1.00
2023-03-14T17:43:34.079Z,1.00
2023-03-14T17:46:07.424Z,1.00
2023-03-14T17:48:35.747Z,1.00
2023-03-14T17:51:03.312Z,1.00
2023-03-14T17:53:30.914Z,1.00
2023-03-14T17:55:58.485Z,1.00
2023-03-14T17:58:25.848Z,1.00
2023-03-14T18:00:52.951Z,1.00
2023-03-14T18:03:21.394Z,1.00
2023-03-14T18:05:49.081Z,1.00
2023-03-14T18:08:17.357Z,1.00
2023-03-14T18:10:45.031Z,1.00
2023-03-14T18:13:12.284Z,1.00
2023-03-14T18:15:40.867Z,1.00
2023-03-14T18:18:08.594Z,1.00
2023-03-14T18:20:36.233Z,1.00
2023-03-14T18:23:04.018Z,1.00
2023-03-14T18:25:31.520Z,1.00
2023-03-14T18:28:00.853Z,1.00
2023-03-14T18:30:28.480Z,1.00
2023-03-14T18:32:55.760Z,1.00
2023-03-14T18:35:28.760Z,1.00
2023-03-14T18:37:56.502Z,1.00
2023-03-14T18:40:23.766Z,1.00
2023-03-14T18:42:53.664Z,1.00
2023-03-14T18:45:20.996Z,1.00
2023-03-14T18:47:48.463Z,1.00
2023-03-14T18:50:15.789Z,1.00
2023-03-14T18:52:43.150Z,1.00
2023-03-14T18:55:11.249Z,1.00
2023-03-14T18:57:38.575Z,1.00
2023-03-14T19:00:10.482Z,1.00
2023-03-14T19:02:37.820Z,3.30
2023-03-14T19:05:07.908Z,6.40
2023-03-14T19:07:35.918Z,5.80
2023-03-14T19:10:03.160Z,5.50
2023-03-14T19:12:30.692Z,7.00
2023-03-14T19:14:58.169Z,6.70
2023-03-14T19:17:25.509Z,6.70
2023-03-14T19:19:54.302Z,6.10
2023-03-14T19:22:21.864Z,6.50
2023-03-14T19:24:49.226Z,7.20
2023-03-14T19:27:16.728Z,8.10
2023-03-14T19:29:44.221Z,5.70
2023-03-14T19:32:11.943Z,5.50
2023-03-14T19:34:39.327Z,4.60
2023-03-14T19:37:09.623Z,4.50
2023-03-14T19:39:39.459Z,3.60
2023-03-14T19:42:07.994Z,5.10
2023-03-14T19:44:38.569Z,5.20
2023-03-14T19:47:06.896Z,3.40
2023-03-14T19:49:34.297Z,2.80
2023-03-14T19:52:01.840Z,1.10
2023-03-14T19:54:29.484Z,1.80
2023-03-14T19:56:57.553Z,1.60
2023-03-14T19:59:25.107Z,1.80
2023-03-14T20:01:53.079Z,2.10
2023-03-14T20:04:20.790Z,1.60
2023-03-14T20:06:48.007Z,1.00
2023-03-14T20:09:15.503Z,1.00
2023-03-14T20:11:44.397Z,1.00
2023-03-14T20:14:13.811Z,1.70
2023-03-14T20:16:41.527Z,1.00
2023-03-14T20:19:12.148Z,1.10
2023-03-14T20:21:39.257Z,1.00
2023-03-14T20:24:09.835Z,1.20
2023-03-14T20:26:37.796Z,1.40
2023-03-14T20:29:05.693Z,2.90
2023-03-14T20:31:34.205Z,1.20
2023-03-14T20:34:01.797Z,2.30
2023-03-14T20:36:29.223Z,2.40
2023-03-14T20:38:56.685Z,1.70
2023-03-14T20:41:24.031Z,1.90
2023-03-14T20:43:51.136Z,5.40
2023-03-14T20:46:18.642Z,7.20
2023-03-14T20:48:46.443Z,8.90
2023-03-14T20:51:17.771Z,12.90
2023-03-14T20:53:45.764Z,21.40
2023-03-14T20:56:13.216Z,27.60
2023-03-14T20:58:41.378Z,29.80
2023-03-14T21:03:57.183Z,36.60
2023-03-14T21:06:25.618Z,37.90
2023-03-14T21:08:54.662Z,39.60
2023-03-14T21:11:22.099Z,39.10
2023-03-14T21:13:49.279Z,40.20
2023-03-14T21:16:16.747Z,42.40
2023-03-14T21:18:44.063Z,45.10
2023-03-14T21:21:11.489Z,49.30
2023-03-14T21:23:38.531Z,52.40
2023-03-14T21:26:05.854Z,52.80
2023-03-14T21:28:33.338Z,54.40
2023-03-14T21:31:07.988Z,55.20
2023-03-14T21:33:35.945Z,54.90
2023-03-14T21:36:03.361Z,56.30
2023-03-14T21:38:30.880Z,57.60
2023-03-14T21:40:58.482Z,57.50
2023-03-14T21:43:26.250Z,57.10
2023-03-14T21:45:54.271Z,58.40
2023-03-14T21:48:22.356Z,60.60
2023-03-14T21:50:53.622Z,62.70
2023-03-14T21:53:20.902Z,61.10
2023-03-14T21:55:48.652Z,65.30
2023-03-14T21:58:15.734Z,65.10
2023-03-14T22:00:49.670Z,65.30
2023-03-14T22:03:23.691Z,67.20
2023-03-14T22:05:53.724Z,68.50
2023-03-14T22:08:23.605Z,69.40
2023-03-14T22:10:52.775Z,70.70
2023-03-14T22:13:20.721Z,72.60
2023-03-14T22:15:48.276Z,71.70
2023-03-14T22:18:16.611Z,71.80
2023-03-14T22:20:45.475Z,72.10
2023-03-14T22:23:13.765Z,71.60
2023-03-14T22:25:42.344Z,72.50
2023-03-14T22:28:10.645Z,73.20
2023-03-14T22:30:38.228Z,73.40
2023-03-14T22:33:06.651Z,73.80
2023-03-14T22:35:34.445Z,73.90
2023-03-14T22:38:01.920Z,73.80
2023-03-14T22:40:29.005Z,74.40
2023-03-14T22:42:57.428Z,74.40
2023-03-14T22:45:24.731Z,74.30
2023-03-14T22:47:52.263Z,74.40
2023-03-14T22:50:19.892Z,75.10
2023-03-14T22:52:47.366Z,74.40
2023-03-14T22:55:14.568Z,74.80
2023-03-14T22:57:41.999Z,75.30
2023-03-14T23:00:13.543Z,76.70
2023-03-14T23:02:41.036Z,76.70
2023-03-14T23:05:08.624Z,77.60
2023-03-14T23:07:37.224Z,77.50
2023-03-14T23:10:13.769Z,77.70
2023-03-14T23:12:41.138Z,77.20
2023-03-14T23:15:11.964Z,77.70
2023-03-14T23:17:39.230Z,77.60
2023-03-14T23:20:07.663Z,77.90
2023-03-14T23:22:35.064Z,77.90
2023-03-14T23:25:05.831Z,77.60
2023-03-14T23:27:33.047Z,78.40
2023-03-14T23:30:00.379Z,78.10
2023-03-14T23:32:27.730Z,77.80
2023-03-14T23:34:55.304Z,77.90
2023-03-14T23:37:24.067Z,78.40
2023-03-14T23:39:51.320Z,79.40
2023-03-14T23:42:18.902Z,80.30
2023-03-14T23:44:47.027Z,81.00
2023-03-14T23:47:14.239Z,81.30
2023-03-14T23:49:42.217Z,81.60
2023-03-14T23:52:09.972Z,81.40
2023-03-14T23:54:37.700Z,81.50
2023-03-14T23:57:05.849Z,81.60
2023-03-14T23:59:34.131Z,81.50
